PRG weather

Václav Havel Airport Prague
Prague, Prague (capital city), Czechia

Public forecast

Using degrees Celsius for public forecast. Weather courtesy of forecast.io.

METAR (pilot weather report)

Retrieved 2017/12/15 22:33 UTC (0 seconds ago):

LKPR 152233Z 22009KT 9999 BKN020 02/M01 Q1000 RMK REG QNH 0996

TAF (pilot weather forecast)

Forecast is more than 12 hours old.

Retrieved 2017/12/15 06:27 UTC (16 hours ago):

TAF LKPR 150500Z 1506/1612 19010KT 9999 BKN035 TEMPO 1506/1514 20012G24KT TEMPO 1506/1509 8000 RA BKN020 PROB30 TEMPO 1506/1508 3000 SNRA BKN007 TEMPO 1509/1517 5000 -SHSNRA BKN015 BECMG 1518/1520 VRB02KT BECMG 1604/1606 29010KT